sensor_id;sensor_type;location;lat;lon;timestamp;P1;durP1;ratioP1;P2;durP2;ratioP2
36797;SDS011;22748;8.426;99.512;2024-03-02T00:00:26;57.60;;;43.72;;
36797;SDS011;22748;8.426;99.512;2024-03-02T00:02:57;63.50;;;49.38;;
36797;SDS011;22748;8.426;99.512;2024-03-02T00:05:26;51.15;;;42.05;;
36797;SDS011;22748;8.426;99.512;2024-03-02T00:07:56;45.47;;;34.70;;
36797;SDS011;22748;8.426;99.512;2024-03-02T00:10:30;44.97;;;32.88;;
36797;SDS011;22748;8.426;99.512;2024-03-02T00:13:03;45.13;;;34.38;;
36797;SDS011;22748;8.426;99.512;2024-03-02T00:15:45;50.97;;;36.60;;
36797;SDS011;22748;8.426;99.512;2024-03-02T00:18:16;48.70;;;37.25;;
36797;SDS011;22748;8.426;99.512;2024-03-02T00:20:47;68.00;;;50.03;;
36797;SDS011;22748;8.426;99.512;2024-03-02T00:23:18;91.50;;;71.75;;
36797;SDS011;22748;8.426;99.512;2024-03-02T00:25:48;71.23;;;54.43;;
36797;SDS011;22748;8.426;99.512;2024-03-02T00:28:19;58.95;;;45.80;;
36797;SDS011;22748;8.426;99.512;2024-03-02T00:31:02;53.25;;;40.53;;
36797;SDS011;22748;8.426;99.512;2024-03-02T00:33:33;50.58;;;38.33;;
36797;SDS011;22748;8.426;99.512;2024-03-02T00:36:03;47.75;;;36.67;;
36797;SDS011;22748;8.426;99.512;2024-03-02T00:38:34;48.20;;;38.00;;
36797;SDS011;22748;8.426;99.512;2024-03-02T00:41:05;50.45;;;37.40;;
36797;SDS011;22748;8.426;99.512;2024-03-02T00:43:42;39.65;;;32.25;;
36797;SDS011;22748;8.426;99.512;2024-03-02T00:46:18;43.72;;;31.63;;
36797;SDS011;22748;8.426;99.512;2024-03-02T00:48:53;39.08;;;29.33;;
36797;SDS011;22748;8.426;99.512;2024-03-02T00:51:24;44.05;;;32.40;;
36797;SDS011;22748;8.426;99.512;2024-03-02T00:53:55;44.22;;;28.77;;
36797;SDS011;22748;8.426;99.512;2024-03-02T00:56:25;45.40;;;32.08;;
36797;SDS011;22748;8.426;99.512;2024-03-02T00:58:55;44.33;;;30.38;;
36797;SDS011;22748;8.426;99.512;2024-03-02T01:01:31;48.15;;;37.05;;
36797;SDS011;22748;8.426;99.512;2024-03-02T01:04:01;46.03;;;32.30;;
36797;SDS011;22748;8.426;99.512;2024-03-02T01:06:30;41.55;;;30.33;;
36797;SDS011;22748;8.426;99.512;2024-03-02T01:09:00;40.15;;;28.00;;
36797;SDS011;22748;8.426;99.512;2024-03-02T01:11:29;36.30;;;25.80;;
36797;SDS011;22748;8.426;99.512;2024-03-02T01:13:59;31.67;;;24.83;;
36797;SDS011;22748;8.426;99.512;2024-03-02T01:16:34;31.42;;;23.98;;
36797;SDS011;22748;8.426;99.512;2024-03-02T01:19:03;36.25;;;23.35;;
36797;SDS011;22748;8.426;99.512;2024-03-02T01:21:34;32.10;;;23.05;;
36797;SDS011;22748;8.426;99.512;2024-03-02T01:24:04;25.65;;;20.98;;
36797;SDS011;22748;8.426;99.512;2024-03-02T01:26:34;28.42;;;21.23;;
36797;SDS011;22748;8.426;99.512;2024-03-02T01:29:04;28.77;;;20.58;;
36797;SDS011;22748;8.426;99.512;2024-03-02T01:31:37;27.02;;;21.08;;
36797;SDS011;22748;8.426;99.512;2024-03-02T01:34:08;27.52;;;19.90;;
36797;SDS011;22748;8.426;99.512;2024-03-02T01:36:39;31.85;;;19.52;;
36797;SDS011;22748;8.426;99.512;2024-03-02T01:39:09;22.17;;;18.83;;
36797;SDS011;22748;8.426;99.512;2024-03-02T01:41:40;25.58;;;18.10;;
36797;SDS011;22748;8.426;99.512;2024-03-02T01:44:10;31.42;;;17.77;;
36797;SDS011;22748;8.426;99.512;2024-03-02T01:46:47;35.47;;;20.00;;
36797;SDS011;22748;8.426;99.512;2024-03-02T01:49:17;29.13;;;20.40;;
36797;SDS011;22748;8.426;99.512;2024-03-02T01:51:47;29.65;;;19.15;;
36797;SDS011;22748;8.426;99.512;2024-03-02T01:54:17;24.55;;;16.70;;
36797;SDS011;22748;8.426;99.512;2024-03-02T01:56:47;20.75;;;16.52;;
36797;SDS011;22748;8.426;99.512;2024-03-02T01:59:18;30.38;;;16.98;;
36797;SDS011;22748;8.426;99.512;2024-03-02T02:01:53;30.48;;;18.05;;
36797;SDS011;22748;8.426;99.512;2024-03-02T02:04:23;27.23;;;18.58;;
36797;SDS011;22748;8.426;99.512;2024-03-02T02:06:54;26.10;;;18.52;;
36797;SDS011;22748;8.426;99.512;2024-03-02T02:09:24;23.77;;;17.90;;
36797;SDS011;22748;8.426;99.512;2024-03-02T02:11:53;26.38;;;17.63;;
36797;SDS011;22748;8.426;99.512;2024-03-02T02:14:24;28.98;;;17.05;;
36797;SDS011;22748;8.426;99.512;2024-03-02T02:16:58;22.17;;;16.75;;
36797;SDS011;22748;8.426;99.512;2024-03-02T02:19:28;31.33;;;18.30;;
36797;SDS011;22748;8.426;99.512;2024-03-02T02:22:00;30.23;;;17.77;;
36797;SDS011;22748;8.426;99.512;2024-03-02T02:24:30;28.63;;;18.13;;
36797;SDS011;22748;8.426;99.512;2024-03-02T02:27:01;25.50;;;17.50;;
36797;SDS011;22748;8.426;99.512;2024-03-02T02:29:30;32.30;;;18.15;;
36797;SDS011;22748;8.426;99.512;2024-03-02T02:32:00;23.75;;;16.35;;
36797;SDS011;22748;8.426;99.512;2024-03-02T02:34:31;25.40;;;15.20;;
36797;SDS011;22748;8.426;99.512;2024-03-02T02:37:07;25.15;;;16.42;;
36797;SDS011;22748;8.426;99.512;2024-03-02T02:39:38;22.30;;;15.23;;
36797;SDS011;22748;8.426;99.512;2024-03-02T02:42:08;20.83;;;15.23;;
36797;SDS011;22748;8.426;99.512;2024-03-02T02:44:38;21.17;;;15.10;;
36797;SDS011;22748;8.426;99.512;2024-03-02T02:47:08;20.58;;;14.40;;
36797;SDS011;22748;8.426;99.512;2024-03-02T02:49:38;20.60;;;16.23;;
36797;SDS011;22748;8.426;99.512;2024-03-02T02:54:44;20.98;;;15.23;;
36797;SDS011;22748;8.426;99.512;2024-03-02T02:57:13;23.92;;;16.42;;
36797;SDS011;22748;8.426;99.512;2024-03-02T02:59:43;22.60;;;16.23;;
36797;SDS011;22748;8.426;99.512;2024-03-02T03:02:19;24.90;;;17.55;;
36797;SDS011;22748;8.426;99.512;2024-03-02T03:04:48;21.50;;;15.95;;
36797;SDS011;22748;8.426;99.512;2024-03-02T03:07:18;20.05;;;14.68;;
36797;SDS011;22748;8.426;99.512;2024-03-02T03:09:51;22.73;;;16.53;;
36797;SDS011;22748;8.426;99.512;2024-03-02T03:12:21;22.88;;;16.58;;
36797;SDS011;22748;8.426;99.512;2024-03-02T03:14:52;23.15;;;16.20;;
36797;SDS011;22748;8.426;99.512;2024-03-02T03:17:22;22.75;;;15.93;;
36797;SDS011;22748;8.426;99.512;2024-03-02T03:19:55;23.77;;;15.55;;
36797;SDS011;22748;8.426;99.512;2024-03-02T03:22:26;26.63;;;16.52;;
36797;SDS011;22748;8.426;99.512;2024-03-02T03:25:01;25.73;;;16.13;;
36797;SDS011;22748;8.426;99.512;2024-03-02T03:27:30;21.55;;;15.82;;
36797;SDS011;22748;8.426;99.512;2024-03-02T03:30:03;22.45;;;15.02;;
36797;SDS011;22748;8.426;99.512;2024-03-02T03:32:33;19.83;;;15.57;;
36797;SDS011;22748;8.426;99.512;2024-03-02T03:35:03;18.83;;;14.98;;
36797;SDS011;22748;8.426;99.512;2024-03-02T03:37:34;23.48;;;16.10;;
36797;SDS011;22748;8.426;99.512;2024-03-02T03:40:06;18.63;;;13.73;;
36797;SDS011;22748;8.426;99.512;2024-03-02T03:42:37;19.70;;;14.80;;
36797;SDS011;22748;8.426;99.512;2024-03-02T03:45:08;19.35;;;15.40;;
36797;SDS011;22748;8.426;99.512;2024-03-02T03:47:39;20.02;;;16.00;;
36797;SDS011;22748;8.426;99.512;2024-03-02T03:50:09;23.75;;;15.43;;
36797;SDS011;22748;8.426;99.512;2024-03-02T03:52:39;18.37;;;14.23;;
36797;SDS011;22748;8.426;99.512;2024-03-02T03:57:44;17.95;;;13.35;;
36797;SDS011;22748;8.426;99.512;2024-03-02T04:00:14;18.17;;;13.40;;
36797;SDS011;22748;8.426;99.512;2024-03-02T04:02:44;23.33;;;13.90;;
36797;SDS011;22748;8.426;99.512;2024-03-02T04:05:15;17.60;;;12.93;;
36797;SDS011;22748;8.426;99.512;2024-03-02T04:07:45;15.90;;;13.30;;
36797;SDS011;22748;8.426;99.512;2024-03-02T04:10:15;17.35;;;12.63;;
36797;SDS011;22748;8.426;99.512;2024-03-02T04:12:50;20.00;;;12.27;;
36797;SDS011;22748;8.426;99.512;2024-03-02T04:15:20;16.33;;;12.73;;
36797;SDS011;22748;8.426;99.512;2024-03-02T04:17:54;17.83;;;11.95;;
36797;SDS011;22748;8.426;99.512;2024-03-02T04:20:26;14.48;;;11.88;;
36797;SDS011;22748;8.426;99.512;2024-03-02T04:22:56;17.60;;;12.17;;
36797;SDS011;22748;8.426;99.512;2024-03-02T04:25:26;16.25;;;12.20;;
36797;SDS011;22748;8.426;99.512;2024-03-02T04:28:04;14.65;;;11.70;;
36797;SDS011;22748;8.426;99.512;2024-03-02T04:30:37;17.23;;;11.27;;
36797;SDS011;22748;8.426;99.512;2024-03-02T04:35:36;14.07;;;10.90;;
36797;SDS011;22748;8.426;99.512;2024-03-02T04:38:06;13.95;;;10.32;;
36797;SDS011;22748;8.426;99.512;2024-03-02T04:40:36;13.07;;;11.27;;
36797;SDS011;22748;8.426;99.512;2024-03-02T04:43:09;13.85;;;11.65;;
36797;SDS011;22748;8.426;99.512;2024-03-02T04:45:42;18.48;;;11.73;;
36797;SDS011;22748;8.426;99.512;2024-03-02T04:48:13;17.85;;;12.60;;
36797;SDS011;22748;8.426;99.512;2024-03-02T04:50:44;17.40;;;13.00;;
36797;SDS011;22748;8.426;99.512;2024-03-02T04:53:14;18.25;;;12.63;;
36797;SDS011;22748;8.426;99.512;2024-03-02T04:55:44;16.92;;;12.68;;
36797;SDS011;22748;8.426;99.512;2024-03-02T04:58:35;18.85;;;14.70;;
36797;SDS011;22748;8.426;99.512;2024-03-02T05:01:07;17.45;;;11.57;;
36797;SDS011;22748;8.426;99.512;2024-03-02T05:03:37;17.90;;;13.15;;
36797;SDS011;22748;8.426;99.512;2024-03-02T05:06:14;16.38;;;12.35;;
36797;SDS011;22748;8.426;99.512;2024-03-02T05:08:45;14.70;;;11.70;;
36797;SDS011;22748;8.426;99.512;2024-03-02T05:11:19;21.42;;;15.13;;
36797;SDS011;22748;8.426;99.512;2024-03-02T05:14:19;22.27;;;13.32;;
36797;SDS011;22748;8.426;99.512;2024-03-02T05:16:49;15.80;;;11.40;;
36797;SDS011;22748;8.426;99.512;2024-03-02T05:19:19;16.53;;;12.27;;
36797;SDS011;22748;8.426;99.512;2024-03-02T05:21:49;17.75;;;12.38;;
36797;SDS011;22748;8.426;99.512;2024-03-02T05:24:18;15.75;;;12.27;;
36797;SDS011;22748;8.426;99.512;2024-03-02T05:26:48;17.63;;;13.70;;
36797;SDS011;22748;8.426;99.512;2024-03-02T05:29:21;17.67;;;11.52;;
36797;SDS011;22748;8.426;99.512;2024-03-02T05:31:51;14.02;;;10.75;;
36797;SDS011;22748;8.426;99.512;2024-03-02T05:34:22;22.45;;;16.45;;
36797;SDS011;22748;8.426;99.512;2024-03-02T05:36:52;15.30;;;11.82;;
36797;SDS011;22748;8.426;99.512;2024-03-02T05:39:24;17.35;;;12.93;;
36797;SDS011;22748;8.426;99.512;2024-03-02T05:41:57;16.27;;;11.82;;
36797;SDS011;22748;8.426;99.512;2024-03-02T05:44:33;12.23;;;9.43;;
36797;SDS011;22748;8.426;99.512;2024-03-02T05:47:04;12.77;;;9.73;;
36797;SDS011;22748;8.426;99.512;2024-03-02T05:49:35;14.30;;;9.60;;
36797;SDS011;22748;8.426;99.512;2024-03-02T05:52:09;13.52;;;8.98;;
36797;SDS011;22748;8.426;99.512;2024-03-02T05:54:40;11.60;;;9.07;;
36797;SDS011;22748;8.426;99.512;2024-03-02T05:57:10;12.77;;;8.27;;
36797;SDS011;22748;8.426;99.512;2024-03-02T05:59:55;16.50;;;9.88;;
36797;SDS011;22748;8.426;99.512;2024-03-02T06:02:25;13.43;;;8.15;;
36797;SDS011;22748;8.426;99.512;2024-03-02T06:04:57;10.50;;;8.55;;
36797;SDS011;22748;8.426;99.512;2024-03-02T06:07:27;9.67;;;8.00;;
36797;SDS011;22748;8.426;99.512;2024-03-02T06:09:58;12.80;;;7.38;;
36797;SDS011;22748;8.426;99.512;2024-03-02T06:12:32;12.75;;;8.20;;
36797;SDS011;22748;8.426;99.512;2024-03-02T06:15:10;9.63;;;7.73;;
36797;SDS011;22748;8.426;99.512;2024-03-02T06:17:44;11.80;;;8.15;;
36797;SDS011;22748;8.426;99.512;2024-03-02T06:20:13;9.57;;;8.02;;
36797;SDS011;22748;8.426;99.512;2024-03-02T06:22:45;8.25;;;7.30;;
36797;SDS011;22748;8.426;99.512;2024-03-02T06:25:17;8.85;;;6.93;;
36797;SDS011;22748;8.426;99.512;2024-03-02T06:27:49;10.80;;;7.10;;
36797;SDS011;22748;8.426;99.512;2024-03-02T06:30:21;8.32;;;6.78;;
36797;SDS011;22748;8.426;99.512;2024-03-02T06:32:51;16.80;;;7.65;;
36797;SDS011;22748;8.426;99.512;2024-03-02T06:35:32;11.90;;;6.63;;
36797;SDS011;22748;8.426;99.512;2024-03-02T06:38:02;10.10;;;6.75;;
36797;SDS011;22748;8.426;99.512;2024-03-02T06:40:33;11.10;;;7.38;;
36797;SDS011;22748;8.426;99.512;2024-03-02T06:45:40;9.50;;;6.45;;
36797;SDS011;22748;8.426;99.512;2024-03-02T06:48:14;9.77;;;6.55;;
36797;SDS011;22748;8.426;99.512;2024-03-02T06:50:50;7.43;;;6.07;;
36797;SDS011;22748;8.426;99.512;2024-03-02T06:53:26;10.48;;;6.90;;
36797;SDS011;22748;8.426;99.512;2024-03-02T06:55:59;8.20;;;6.80;;
36797;SDS011;22748;8.426;99.512;2024-03-02T06:58:29;9.38;;;6.45;;
36797;SDS011;22748;8.426;99.512;2024-03-02T07:01:07;11.90;;;6.50;;
36797;SDS011;22748;8.426;99.512;2024-03-02T07:03:37;14.18;;;6.32;;
36797;SDS011;22748;8.426;99.512;2024-03-02T07:06:08;8.10;;;5.50;;
36797;SDS011;22748;8.426;99.512;2024-03-02T07:08:50;7.60;;;5.50;;
36797;SDS011;22748;8.426;99.512;2024-03-02T07:11:22;6.50;;;5.40;;
36797;SDS011;22748;8.426;99.512;2024-03-02T07:13:52;11.48;;;5.47;;
36797;SDS011;22748;8.426;99.512;2024-03-02T07:16:36;7.22;;;5.28;;
36797;SDS011;22748;8.426;99.512;2024-03-02T07:19:10;9.65;;;5.57;;
36797;SDS011;22748;8.426;99.512;2024-03-02T07:21:42;8.32;;;5.80;;
36797;SDS011;22748;8.426;99.512;2024-03-02T07:24:14;8.98;;;5.40;;
36797;SDS011;22748;8.426;99.512;2024-03-02T07:26:44;6.28;;;5.60;;
36797;SDS011;22748;8.426;99.512;2024-03-02T07:29:15;8.02;;;5.22;;
36797;SDS011;22748;8.426;99.512;2024-03-02T07:31:55;9.18;;;4.95;;
36797;SDS011;22748;8.426;99.512;2024-03-02T07:34:28;9.00;;;5.13;;
36797;SDS011;22748;8.426;99.512;2024-03-02T07:37:02;7.55;;;5.22;;
36797;SDS011;22748;8.426;99.512;2024-03-02T07:39:39;7.90;;;5.47;;
36797;SDS011;22748;8.426;99.512;2024-03-02T07:42:11;8.15;;;5.63;;
36797;SDS011;22748;8.426;99.512;2024-03-02T07:44:47;7.22;;;5.15;;
36797;SDS011;22748;8.426;99.512;2024-03-02T07:47:24;8.32;;;5.25;;
36797;SDS011;22748;8.426;99.512;2024-03-02T07:49:55;6.85;;;5.15;;
36797;SDS011;22748;8.426;99.512;2024-03-02T07:52:25;10.20;;;4.93;;
36797;SDS011;22748;8.426;99.512;2024-03-02T07:54:55;9.35;;;5.15;;
36797;SDS011;22748;8.426;99.512;2024-03-02T07:57:31;10.50;;;5.32;;
36797;SDS011;22748;8.426;99.512;2024-03-02T08:00:01;8.30;;;5.00;;
36797;SDS011;22748;8.426;99.512;2024-03-02T08:05:06;9.27;;;4.95;;
36797;SDS011;22748;8.426;99.512;2024-03-02T08:07:37;5.45;;;4.65;;
36797;SDS011;22748;8.426;99.512;2024-03-02T08:10:08;8.85;;;5.10;;
36797;SDS011;22748;8.426;99.512;2024-03-02T08:12:39;9.98;;;5.28;;
36797;SDS011;22748;8.426;99.512;2024-03-02T08:15:13;8.77;;;4.95;;
36797;SDS011;22748;8.426;99.512;2024-03-02T08:17:43;6.53;;;4.70;;
36797;SDS011;22748;8.426;99.512;2024-03-02T08:20:22;7.25;;;4.95;;
36797;SDS011;22748;8.426;99.512;2024-03-02T08:22:54;11.32;;;4.93;;
36797;SDS011;22748;8.426;99.512;2024-03-02T08:25:25;8.30;;;4.75;;
36797;SDS011;22748;8.426;99.512;2024-03-02T08:27:57;8.65;;;5.55;;
36797;SDS011;22748;8.426;99.512;2024-03-02T08:30:27;10.93;;;5.50;;
36797;SDS011;22748;8.426;99.512;2024-03-02T08:32:58;9.07;;;5.47;;
36797;SDS011;22748;8.426;99.512;2024-03-02T08:35:34;11.07;;;6.05;;
36797;SDS011;22748;8.426;99.512;2024-03-02T08:38:03;6.32;;;5.20;;
36797;SDS011;22748;8.426;99.512;2024-03-02T08:40:34;9.00;;;5.82;;
36797;SDS011;22748;8.426;99.512;2024-03-02T08:43:05;11.90;;;5.03;;
36797;SDS011;22748;8.426;99.512;2024-03-02T08:45:36;9.38;;;5.22;;
36797;SDS011;22748;8.426;99.512;2024-03-02T08:48:08;7.82;;;4.50;;
36797;SDS011;22748;8.426;99.512;2024-03-02T08:53:42;7.00;;;4.53;;
36797;SDS011;22748;8.426;99.512;2024-03-02T08:56:12;7.93;;;4.82;;
36797;SDS011;22748;8.426;99.512;2024-03-02T08:58:45;7.45;;;4.75;;
36797;SDS011;22748;8.426;99.512;2024-03-02T09:01:15;9.23;;;4.80;;
36797;SDS011;22748;8.426;99.512;2024-03-02T09:03:45;10.38;;;4.93;;
36797;SDS011;22748;8.426;99.512;2024-03-02T09:06:17;8.10;;;5.20;;
36797;SDS011;22748;8.426;99.512;2024-03-02T09:08:53;7.55;;;4.85;;
36797;SDS011;22748;8.426;99.512;2024-03-02T09:11:25;6.95;;;5.05;;
36797;SDS011;22748;8.426;99.512;2024-03-02T09:13:55;9.15;;;5.65;;
36797;SDS011;22748;8.426;99.512;2024-03-02T09:16:25;9.38;;;5.50;;
36797;SDS011;22748;8.426;99.512;2024-03-02T09:18:57;12.98;;;5.03;;
36797;SDS011;22748;8.426;99.512;2024-03-02T09:21:28;11.60;;;5.53;;
36797;SDS011;22748;8.426;99.512;2024-03-02T09:26:35;10.55;;;5.75;;
36797;SDS011;22748;8.426;99.512;2024-03-02T09:29:05;9.43;;;5.50;;
36797;SDS011;22748;8.426;99.512;2024-03-02T09:31:39;11.00;;;5.82;;
36797;SDS011;22748;8.426;99.512;2024-03-02T09:34:10;9.07;;;5.82;;
36797;SDS011;22748;8.426;99.512;2024-03-02T09:36:41;10.07;;;5.78;;
36797;SDS011;22748;8.426;99.512;2024-03-02T09:39:15;12.43;;;6.70;;
36797;SDS011;22748;8.426;99.512;2024-03-02T09:41:53;10.60;;;5.88;;
36797;SDS011;22748;8.426;99.512;2024-03-02T09:44:24;11.93;;;6.05;;
36797;SDS011;22748;8.426;99.512;2024-03-02T09:46:56;12.88;;;6.63;;
36797;SDS011;22748;8.426;99.512;2024-03-02T09:49:29;9.48;;;5.30;;
36797;SDS011;22748;8.426;99.512;2024-03-02T09:51:59;8.77;;;5.30;;
36797;SDS011;22748;8.426;99.512;2024-03-02T09:54:36;8.25;;;5.40;;
36797;SDS011;22748;8.426;99.512;2024-03-02T09:57:13;9.80;;;5.60;;
36797;SDS011;22748;8.426;99.512;2024-03-02T09:59:44;11.85;;;6.18;;
36797;SDS011;22748;8.426;99.512;2024-03-02T10:02:15;11.18;;;5.80;;
36797;SDS011;22748;8.426;99.512;2024-03-02T10:04:50;10.65;;;5.82;;
36797;SDS011;22748;8.426;99.512;2024-03-02T10:07:21;10.52;;;5.78;;
36797;SDS011;22748;8.426;99.512;2024-03-02T10:09:54;11.95;;;6.40;;
36797;SDS011;22748;8.426;99.512;2024-03-02T10:12:30;11.48;;;6.10;;
36797;SDS011;22748;8.426;99.512;2024-03-02T10:15:13;20.98;;;6.72;;
36797;SDS011;22748;8.426;99.512;2024-03-02T10:17:53;11.98;;;6.70;;
36797;SDS011;22748;8.426;99.512;2024-03-02T10:22:53;12.75;;;6.72;;
36797;SDS011;22748;8.426;99.512;2024-03-02T10:25:31;10.88;;;6.80;;
36797;SDS011;22748;8.426;99.512;2024-03-02T10:28:10;9.77;;;6.47;;
36797;SDS011;22748;8.426;99.512;2024-03-02T10:30:40;14.43;;;7.00;;
36797;SDS011;22748;8.426;99.512;2024-03-02T10:33:12;10.43;;;6.55;;
36797;SDS011;22748;8.426;99.512;2024-03-02T10:35:41;11.10;;;6.80;;
36797;SDS011;22748;8.426;99.512;2024-03-02T10:38:12;11.73;;;6.38;;
36797;SDS011;22748;8.426;99.512;2024-03-02T10:40:43;10.68;;;6.50;;
36797;SDS011;22748;8.426;99.512;2024-03-02T10:43:23;8.75;;;6.45;;
36797;SDS011;22748;8.426;99.512;2024-03-02T10:45:59;8.43;;;6.40;;
36797;SDS011;22748;8.426;99.512;2024-03-02T10:48:30;12.35;;;6.07;;
36797;SDS011;22748;8.426;99.512;2024-03-02T10:51:02;11.20;;;6.82;;
36797;SDS011;22748;8.426;99.512;2024-03-02T10:53:32;13.30;;;6.78;;
36797;SDS011;22748;8.426;99.512;2024-03-02T10:56:04;12.70;;;7.10;;
36797;SDS011;22748;8.426;99.512;2024-03-02T10:58:43;11.52;;;6.95;;
36797;SDS011;22748;8.426;99.512;2024-03-02T11:01:14;13.43;;;7.45;;
36797;SDS011;22748;8.426;99.512;2024-03-02T11:03:44;17.88;;;7.53;;
36797;SDS011;22748;8.426;99.512;2024-03-02T11:06:14;13.45;;;7.30;;
36797;SDS011;22748;8.426;99.512;2024-03-02T11:08:44;14.50;;;7.20;;
36797;SDS011;22748;8.426;99.512;2024-03-02T11:11:18;13.88;;;8.00;;
36797;SDS011;22748;8.426;99.512;2024-03-02T11:13:58;11.88;;;7.25;;
36797;SDS011;22748;8.426;99.512;2024-03-02T11:16:35;16.58;;;8.65;;
36797;SDS011;22748;8.426;99.512;2024-03-02T11:19:05;14.57;;;9.00;;
36797;SDS011;22748;8.426;99.512;2024-03-02T11:21:36;12.80;;;8.68;;
36797;SDS011;22748;8.426;99.512;2024-03-02T11:26:59;16.80;;;8.65;;
36797;SDS011;22748;8.426;99.512;2024-03-02T11:29:54;20.70;;;13.00;;
36797;SDS011;22748;8.426;99.512;2024-03-02T11:32:27;20.23;;;10.60;;
36797;SDS011;22748;8.426;99.512;2024-03-02T11:34:58;19.63;;;12.67;;
36797;SDS011;22748;8.426;99.512;2024-03-02T11:37:29;18.73;;;11.13;;
36797;SDS011;22748;8.426;99.512;2024-03-02T11:40:00;18.30;;;11.98;;
36797;SDS011;22748;8.426;99.512;2024-03-02T11:42:31;17.38;;;10.88;;
36797;SDS011;22748;8.426;99.512;2024-03-02T11:45:11;26.75;;;15.23;;
36797;SDS011;22748;8.426;99.512;2024-03-02T11:47:41;19.92;;;12.70;;
36797;SDS011;22748;8.426;99.512;2024-03-02T11:50:29;15.90;;;9.75;;
36797;SDS011;22748;8.426;99.512;2024-03-02T11:52:59;16.63;;;9.82;;
36797;SDS011;22748;8.426;99.512;2024-03-02T11:55:30;17.60;;;9.65;;
36797;SDS011;22748;8.426;99.512;2024-03-02T11:58:03;20.67;;;11.05;;
36797;SDS011;22748;8.426;99.512;2024-03-02T12:00:40;21.65;;;13.73;;
36797;SDS011;22748;8.426;99.512;2024-03-02T12:03:13;25.58;;;13.25;;
36797;SDS011;22748;8.426;99.512;2024-03-02T12:05:44;44.95;;;31.52;;
36797;SDS011;22748;8.426;99.512;2024-03-02T12:08:24;25.88;;;15.77;;
36797;SDS011;22748;8.426;99.512;2024-03-02T12:10:59;23.80;;;16.77;;
36797;SDS011;22748;8.426;99.512;2024-03-02T12:13:32;28.75;;;17.38;;
36797;SDS011;22748;8.426;99.512;2024-03-02T12:16:08;26.92;;;16.45;;
36797;SDS011;22748;8.426;99.512;2024-03-02T12:18:38;24.70;;;15.18;;
36797;SDS011;22748;8.426;99.512;2024-03-02T12:21:10;23.38;;;13.65;;
36797;SDS011;22748;8.426;99.512;2024-03-02T12:23:40;25.73;;;14.60;;
36797;SDS011;22748;8.426;99.512;2024-03-02T12:26:11;25.55;;;16.35;;
36797;SDS011;22748;8.426;99.512;2024-03-02T12:28:41;26.67;;;18.23;;
36797;SDS011;22748;8.426;99.512;2024-03-02T12:31:22;42.10;;;23.50;;
36797;SDS011;22748;8.426;99.512;2024-03-02T12:33:55;28.92;;;18.05;;
36797;SDS011;22748;8.426;99.512;2024-03-02T12:36:27;25.05;;;17.45;;
36797;SDS011;22748;8.426;99.512;2024-03-02T12:38:58;34.35;;;20.58;;
36797;SDS011;22748;8.426;99.512;2024-03-02T12:41:29;28.38;;;19.10;;
36797;SDS011;22748;8.426;99.512;2024-03-02T12:43:59;33.25;;;18.85;;
36797;SDS011;22748;8.426;99.512;2024-03-02T12:46:36;23.73;;;14.70;;
36797;SDS011;22748;8.426;99.512;2024-03-02T12:49:07;27.73;;;15.77;;
36797;SDS011;22748;8.426;99.512;2024-03-02T12:51:38;24.52;;;15.73;;
36797;SDS011;22748;8.426;99.512;2024-03-02T12:54:13;26.00;;;14.57;;
36797;SDS011;22748;8.426;99.512;2024-03-02T12:56:44;21.63;;;14.00;;
36797;SDS011;22748;8.426;99.512;2024-03-02T12:59:18;22.90;;;12.80;;
36797;SDS011;22748;8.426;99.512;2024-03-02T13:01:55;21.45;;;14.07;;
36797;SDS011;22748;8.426;99.512;2024-03-02T13:04:28;23.70;;;16.98;;
36797;SDS011;22748;8.426;99.512;2024-03-02T13:06:59;31.35;;;19.52;;
36797;SDS011;22748;8.426;99.512;2024-03-02T13:09:30;33.88;;;19.42;;
36797;SDS011;22748;8.426;99.512;2024-03-02T13:12:01;36.70;;;22.27;;
36797;SDS011;22748;8.426;99.512;2024-03-02T13:14:38;35.25;;;21.65;;
36797;SDS011;22748;8.426;99.512;2024-03-02T13:17:15;30.20;;;20.60;;
36797;SDS011;22748;8.426;99.512;2024-03-02T13:19:51;27.23;;;17.92;;
36797;SDS011;22748;8.426;99.512;2024-03-02T13:22:23;23.23;;;14.88;;
36797;SDS011;22748;8.426;99.512;2024-03-02T13:24:57;23.40;;;13.25;;
36797;SDS011;22748;8.426;99.512;2024-03-02T13:27:30;25.10;;;14.55;;
36797;SDS011;22748;8.426;99.512;2024-03-02T13:30:01;23.58;;;16.80;;
36797;SDS011;22748;8.426;99.512;2024-03-02T13:32:35;27.40;;;18.33;;
36797;SDS011;22748;8.426;99.512;2024-03-02T13:35:04;31.55;;;18.48;;
36797;SDS011;22748;8.426;99.512;2024-03-02T13:37:37;24.48;;;16.50;;
36797;SDS011;22748;8.426;99.512;2024-03-02T13:40:11;23.27;;;15.48;;
36797;SDS011;22748;8.426;99.512;2024-03-02T13:42:45;23.70;;;15.00;;
36797;SDS011;22748;8.426;99.512;2024-03-02T13:45:17;18.70;;;12.50;;
36797;SDS011;22748;8.426;99.512;2024-03-02T13:47:57;18.17;;;11.85;;
36797;SDS011;22748;8.426;99.512;2024-03-02T13:50:27;19.58;;;12.98;;
36797;SDS011;22748;8.426;99.512;2024-03-02T13:53:01;19.10;;;13.43;;
36797;SDS011;22748;8.426;99.512;2024-03-02T13:55:40;23.67;;;16.27;;
36797;SDS011;22748;8.426;99.512;2024-03-02T13:58:11;22.20;;;14.93;;
36797;SDS011;22748;8.426;99.512;2024-03-02T14:00:41;24.03;;;15.10;;
36797;SDS011;22748;8.426;99.512;2024-03-02T14:03:22;22.75;;;13.45;;
36797;SDS011;22748;8.426;99.512;2024-03-02T14:05:53;18.35;;;12.77;;
36797;SDS011;22748;8.426;99.512;2024-03-02T14:08:24;21.33;;;12.18;;
36797;SDS011;22748;8.426;99.512;2024-03-02T14:10:54;18.02;;;12.45;;
36797;SDS011;22748;8.426;99.512;2024-03-02T14:13:27;20.50;;;12.90;;
36797;SDS011;22748;8.426;99.512;2024-03-02T14:15:59;19.35;;;12.23;;
36797;SDS011;22748;8.426;99.512;2024-03-02T14:18:39;20.83;;;11.80;;
36797;SDS011;22748;8.426;99.512;2024-03-02T14:21:15;19.05;;;11.93;;
36797;SDS011;22748;8.426;99.512;2024-03-02T14:23:46;20.88;;;12.45;;
36797;SDS011;22748;8.426;99.512;2024-03-02T14:26:26;17.88;;;11.93;;
36797;SDS011;22748;8.426;99.512;2024-03-02T14:29:00;18.80;;;12.60;;
36797;SDS011;22748;8.426;99.512;2024-03-02T14:31:30;21.75;;;15.10;;
36797;SDS011;22748;8.426;99.512;2024-03-02T14:34:14;25.15;;;16.73;;
36797;SDS011;22748;8.426;99.512;2024-03-02T14:36:47;23.77;;;16.40;;
36797;SDS011;22748;8.426;99.512;2024-03-02T14:39:18;24.52;;;15.27;;
36797;SDS011;22748;8.426;99.512;2024-03-02T14:41:49;22.55;;;14.10;;
36797;SDS011;22748;8.426;99.512;2024-03-02T14:44:23;21.23;;;14.18;;
36797;SDS011;22748;8.426;99.512;2024-03-02T14:49:38;21.50;;;14.13;;
36797;SDS011;22748;8.426;99.512;2024-03-02T14:52:08;22.95;;;15.95;;
36797;SDS011;22748;8.426;99.512;2024-03-02T14:54:39;24.40;;;17.15;;
36797;SDS011;22748;8.426;99.512;2024-03-02T14:57:10;22.98;;;16.80;;
36797;SDS011;22748;8.426;99.512;2024-03-02T14:59:40;24.38;;;15.80;;
36797;SDS011;22748;8.426;99.512;2024-03-02T15:02:17;24.50;;;16.10;;
36797;SDS011;22748;8.426;99.512;2024-03-02T15:04:51;24.98;;;15.98;;
36797;SDS011;22748;8.426;99.512;2024-03-02T15:07:23;24.67;;;16.65;;
36797;SDS011;22748;8.426;99.512;2024-03-02T15:09:55;22.60;;;14.90;;
36797;SDS011;22748;8.426;99.512;2024-03-02T15:12:31;21.75;;;15.65;;
36797;SDS011;22748;8.426;99.512;2024-03-02T15:15:02;24.45;;;14.82;;
36797;SDS011;22748;8.426;99.512;2024-03-02T15:17:38;27.48;;;16.48;;
36797;SDS011;22748;8.426;99.512;2024-03-02T15:20:22;25.17;;;16.08;;
36797;SDS011;22748;8.426;99.512;2024-03-02T15:22:55;22.20;;;15.88;;
36797;SDS011;22748;8.426;99.512;2024-03-02T15:25:29;23.83;;;15.82;;